Weyburn, Canada
Current Conditions -  °F | °C
As of 5:00 AM on Monday 20 Oct 2014 (Local Time) from CYEN Reporting Station
Clear Clear  
Wind Chill: 34°   Ceiling: Unl
Heat Index: 39°   Visibility: 15mi
Dew Point: 36°   Wind: 7mph
Humidity: 87%   Direction: 160°SSE
Pressure: 29.97"   Gusts: NA
Location:  49.67°N, 103.86°W
Report Text: CYEN 201100Z 16006KT 15SM SKC 04/02 A2997 RMK SLP159
Loading
Personal Weather Stations






























Interactive Weather Map
Tropical Storm Tracking
New forecast layout! Learn more

10-Day Weather Forecast

Advertisements
Track Severe Weather on mobile